Time;durP1;ratioP1;P1;durP2;ratioP2;P2;SDS_P1;SDS_P2;PMS_P1;PMS_P2;Temp;Humidity;BMP_temperature;BMP_pressure;BME280_temperature;BME280_humidity;BME280_pressure;Samples;Min_cycle;Max_cycle;Signal;HPM_P1;HPM_P2
2022/01/31 00:00:17;;;;;;;3.07;1.77;;;0.90;79.20;0.40;96780.00;;;;5041426;28;20432;-78
2022/01/31 00:03:06;;;;;;;2.67;1.43;;;0.90;79.30;0.30;96768.00;;;;5045457;28;20436;-77
2022/01/31 00:05:54;;;;;;;3.20;1.70;;;0.80;79.70;0.20;96771.00;;;;5049159;28;20483;-77
2022/01/31 00:08:43;;;;;;;4.20;2.17;;;0.80;79.70;0.10;96774.00;;;;5041481;28;20438;-77
2022/01/31 00:11:40;;;;;;;3.47;1.90;;;0.70;80.10;0.30;96756.00;;;;5035638;28;20462;-78
2022/01/31 00:14:38;;;;;;;3.47;2.03;;;0.70;80.20;0.10;96771.00;;;;5046285;28;20433;-77
2022/01/31 00:17:26;;;;;;;5.23;2.00;;;0.70;81.20;0.20;96760.00;;;;5044594;28;20440;-78
2022/01/31 00:20:15;;;;;;;1.77;1.17;;;0.80;80.80;0.40;96757.00;;;;5044130;28;20420;-77
2022/01/31 00:23:04;;;;;;;1.63;1.20;;;0.80;80.40;0.50;96754.00;;;;5044687;28;20435;-77
2022/01/31 00:25:53;;;;;;;5.97;1.33;;;0.80;79.90;0.50;96764.00;;;;5045216;28;20424;-78
2022/01/31 00:28:43;;;;;;;2.10;1.00;;;0.90;79.80;0.50;96761.00;;;;5038503;28;20440;-77
2022/01/31 00:31:34;;;;;;;1.40;1.30;;;-0.20;79.10;-0.30;96740.00;;;;5041163;28;20440;-77
2022/01/31 00:34:23;;;;;;;2.00;1.43;;;0.90;80.40;-0.30;96742.00;;;;5042172;28;20427;-77
2022/01/31 00:37:12;;;;;;;1.63;1.07;;;0.60;81.10;0.00;96742.00;;;;5041373;28;20466;-78
2022/01/31 00:40:01;;;;;;;2.37;0.90;;;0.60;81.10;0.00;96734.00;;;;5044838;28;20439;-77
2022/01/31 00:42:50;;;;;;;1.90;1.03;;;0.50;81.90;0.10;96739.00;;;;5041499;28;20428;-78
2022/01/31 00:45:45;;;;;;;1.80;1.17;;;0.50;82.50;0.00;96743.00;;;;5040660;28;20448;-78
2022/01/31 00:48:41;;;;;;;1.10;1.10;;;0.50;83.30;-0.40;96725.00;;;;5043329;28;21203;-77
2022/01/31 00:51:30;;;;;;;2.70;1.40;;;0.40;83.20;-0.50;96728.00;;;;5043081;28;20462;-77
2022/01/31 00:54:19;;;;;;;4.00;1.30;;;1.40;83.90;-0.10;96723.00;;;;5043227;28;20466;-77
2022/01/31 00:57:08;;;;;;;1.43;1.33;;;0.30;82.90;-0.50;96718.00;;;;5043846;28;20824;-78
2022/01/31 00:59:57;;;;;;;1.80;0.97;;;0.30;83.40;-0.70;96729.00;;;;5040057;28;20420;-77
2022/01/31 01:02:46;;;;;;;3.27;1.40;;;0.40;83.60;-0.20;96727.00;;;;5040116;28;20452;-77
2022/01/31 01:05:37;;;;;;;2.90;1.20;;;0.40;83.30;0.20;96721.00;;;;5044598;28;20416;-78
2022/01/31 01:08:26;;;;;;;1.33;1.17;;;0.30;82.90;-0.10;96706.00;;;;5045968;28;20443;-78
2022/01/31 01:11:15;;;;;;;4.50;1.47;;;0.50;82.70;0.00;96701.00;;;;5045409;28;20483;-77
2022/01/31 01:14:04;;;;;;;1.37;1.27;;;0.40;82.10;-0.10;96702.00;;;;5043322;28;20429;-78
2022/01/31 01:16:53;;;;;;;2.50;1.40;;;0.50;82.20;-0.10;96701.00;;;;5044036;28;20463;-77
2022/01/31 01:19:43;;;;;;;4.23;1.90;;;0.40;82.30;0.00;96699.00;;;;5037981;28;20432;-77
2022/01/31 01:22:34;;;;;;;3.77;2.10;;;0.40;82.20;0.00;96694.00;;;;5043229;28;20454;-76
2022/01/31 01:25:23;;;;;;;2.30;1.63;;;0.40;82.00;0.10;96686.00;;;;5043710;28;20436;-78
2022/01/31 01:28:11;;;;;;;1.40;1.17;;;0.50;81.90;0.00;96679.00;;;;5034786;28;20416;-78
2022/01/31 01:31:00;;;;;;;0.87;0.87;;;0.60;81.50;-0.40;96664.00;;;;5035611;28;20472;-77
2022/01/31 01:33:52;;;;;;;0.80;0.80;;;0.50;81.80;-0.80;96660.00;;;;5038404;28;20467;-76
2022/01/31 01:36:43;;;;;;;2.73;1.10;;;0.30;82.60;-0.70;96664.00;;;;5040242;28;20476;-78
2022/01/31 01:39:34;;;;;;;1.73;0.77;;;0.10;83.10;-0.50;96656.00;;;;5037285;28;20450;-77
2022/01/31 01:42:23;;;;;;;1.47;1.03;;;0.20;83.20;-0.40;96659.00;;;;5042327;28;20436;-78
2022/01/31 01:45:12;;;;;;;4.53;1.50;;;0.10;83.20;-0.50;96651.00;;;;5041145;28;20437;-76
2022/01/31 01:48:01;;;;;;;1.10;1.00;;;0.10;83.40;-0.70;96645.00;;;;5035931;28;20440;-77
2022/01/31 01:50:51;;;;;;;1.70;1.60;;;0.00;83.90;-0.90;96637.00;;;;5032291;28;20444;-77
2022/01/31 01:53:40;;;;;;;1.93;1.27;;;-0.10;83.80;-0.80;96643.00;;;;5030123;28;20437;-77
2022/01/31 01:56:31;;;;;;;1.07;1.07;;;-0.20;84.90;-0.90;96640.00;;;;5038552;28;21000;-78
2022/01/31 01:59:20;;;;;;;2.40;1.10;;;-0.20;84.60;-1.00;96628.00;;;;5037892;28;20443;-77
2022/01/31 02:02:09;;;;;;;1.13;0.93;;;-0.30;84.60;-1.00;96639.00;;;;5036658;28;20439;-77
2022/01/31 02:04:59;;;;;;;1.40;1.30;;;-0.40;85.40;-1.20;96621.00;;;;5031653;28;20433;-78
2022/01/31 02:07:48;;;;;;;1.20;1.10;;;-0.40;85.60;-1.00;96621.00;;;;5038423;28;20458;-77
2022/01/31 02:10:36;;;;;;;3.07;1.00;;;-0.50;85.70;-1.10;96607.00;;;;5037489;28;20428;-77
2022/01/31 02:13:27;;;;;;;3.60;1.20;;;-0.50;86.00;-1.00;96604.00;;;;5028201;28;20440;-77
2022/01/31 02:16:19;;;;;;;3.93;1.30;;;-0.50;86.60;-1.40;96596.00;;;;5025051;28;20460;-78
2022/01/31 02:19:13;;;;;;;1.30;1.20;;;-0.60;87.00;-1.50;96594.00;;;;5033649;28;20435;-77
2022/01/31 02:22:04;;;;;;;2.33;0.67;;;-0.60;87.60;-1.50;96592.00;;;;5031209;28;20448;-76
2022/01/31 02:24:53;;;;;;;0.90;0.87;;;-0.70;87.90;-1.40;96588.00;;;;5032248;28;20791;-77
2022/01/31 02:27:42;;;;;;;4.17;1.27;;;-0.70;88.20;-1.30;96591.00;;;;5032100;28;20432;-77
2022/01/31 02:30:31;;;;;;;2.37;1.40;;;-0.70;88.50;-1.50;96575.00;;;;5029729;28;20459;-77
2022/01/31 02:33:20;;;;;;;1.87;1.20;;;-0.70;88.40;-1.40;96578.00;;;;5026768;28;20859;-77
2022/01/31 02:36:09;;;;;;;1.07;0.93;;;-0.70;88.80;-1.00;96594.00;;;;5030933;28;20558;-77
2022/01/31 02:38:59;;;;;;;6.00;2.00;;;-0.60;88.40;-0.90;96592.00;;;;5022379;28;20446;-76
2022/01/31 02:41:48;;;;;;;0.83;0.83;;;-0.60;87.70;-0.80;96583.00;;;;5029904;28;20445;-77
2022/01/31 02:44:41;;;;;;;6.00;1.20;;;-0.50;87.30;-0.90;96581.00;;;;5030126;28;20428;-77
2022/01/31 02:47:36;;;;;;;1.90;1.50;;;-0.40;87.20;-1.10;96588.00;;;;5030607;28;20455;-77
2022/01/31 02:50:25;;;;;;;1.37;0.80;;;-0.40;87.40;-1.20;96576.00;;;;5027103;28;20935;-77
2022/01/31 02:53:23;;;;;;;2.50;1.53;;;-0.50;87.50;-1.40;96571.00;;;;5029899;28;20427;-77
2022/01/31 02:56:13;;;;;;;1.90;1.10;;;-0.60;88.20;-1.40;96568.00;;;;5029164;28;20432;-77
2022/01/31 02:59:02;;;;;;;2.97;1.93;;;-0.70;88.50;-1.40;96574.00;;;;5028952;28;20440;-77
2022/01/31 03:01:51;;;;;;;2.27;1.43;;;-0.70;88.50;-1.50;96566.00;;;;5028791;28;20460;-77
2022/01/31 03:04:39;;;;;;;3.23;1.60;;;-0.70;88.60;-1.40;96568.00;;;;5026887;28;20528;-76
2022/01/31 03:07:30;;;;;;;4.33;1.73;;;-0.70;88.80;-1.20;96572.00;;;;5023629;28;20432;-77
2022/01/31 03:10:19;;;;;;;4.47;1.17;;;-0.60;88.60;-1.40;96557.00;;;;5026860;28;20423;-77
2022/01/31 03:13:09;;;;;;;8.47;2.30;;;-0.70;88.30;-1.70;96536.00;;;;5027337;28;20439;-77
2022/01/31 03:15:58;;;;;;;11.03;2.10;;;-0.80;88.90;-1.70;96531.00;;;;5026865;28;20431;-77
2022/01/31 03:18:47;;;;;;;3.33;2.37;;;-0.90;89.40;-1.80;96526.00;;;;5028176;28;20462;-77
2022/01/31 03:21:37;;;;;;;4.70;1.80;;;-1.00;90.00;-1.80;96535.00;;;;5027263;28;21202;-77
2022/01/31 03:24:26;;;;;;;7.27;2.97;;;-1.10;90.10;-1.80;96532.00;;;;5028040;28;20437;-77
2022/01/31 03:27:15;;;;;;;5.83;2.37;;;-1.10;90.20;-1.90;96512.00;;;;5029298;28;20440;-77
2022/01/31 03:30:09;;;;;;;5.20;1.70;;;-1.20;90.10;-1.90;96519.00;;;;5019123;28;20427;-76
2022/01/31 03:32:58;;;;;;;12.23;1.63;;;-0.90;90.40;-2.00;96517.00;;;;5019925;28;20436;-76
2022/01/31 03:35:47;;;;;;;4.07;1.80;;;-1.30;90.50;-2.10;96517.00;;;;5023739;28;20436;-76
2022/01/31 03:38:40;;;;;;;3.83;1.30;;;-1.30;90.70;-2.30;96510.00;;;;5026142;28;20472;-77
2022/01/31 03:41:29;;;;;;;1.67;1.10;;;-1.40;91.20;-2.00;96521.00;;;;5029757;28;20452;-77
2022/01/31 03:44:18;;;;;;;2.67;1.60;;;-1.40;91.40;-1.90;96513.00;;;;5030342;28;20431;-77
2022/01/31 03:47:09;;;;;;;3.37;1.13;;;-1.30;91.30;-1.90;96505.00;;;;5026736;28;20455;-78
2022/01/31 03:49:58;;;;;;;1.63;1.17;;;-1.30;91.40;-1.80;96490.00;;;;5028763;28;20985;-77
2022/01/31 03:52:48;;;;;;;2.10;0.67;;;-1.20;91.40;-1.90;96489.00;;;;5032917;28;20448;-78
2022/01/31 03:55:37;;;;;;;9.00;1.77;;;-1.30;91.50;-2.10;96487.00;;;;5027334;28;20421;-77
2022/01/31 03:58:26;;;;;;;1.53;1.30;;;-1.30;91.50;-2.30;96475.00;;;;5036061;28;20470;-77
2022/01/31 04:01:15;;;;;;;11.00;1.70;;;-1.40;91.70;-2.50;96456.00;;;;5033216;28;20452;-78
2022/01/31 04:04:10;;;;;;;7.40;1.40;;;-1.60;92.00;-2.60;96464.00;;;;5032577;28;20432;-77
2022/01/31 04:06:59;;;;;;;1.73;1.30;;;-1.60;92.50;-2.30;96453.00;;;;5031897;28;20436;-77
2022/01/31 04:09:48;;;;;;;4.83;1.20;;;-1.60;92.70;-2.20;96455.00;;;;5032644;28;20452;-77
2022/01/31 04:12:36;;;;;;;1.27;0.93;;;-1.60;92.60;-2.00;96442.00;;;;5030790;28;20467;-77
2022/01/31 04:15:26;;;;;;;6.37;1.33;;;-1.60;92.70;-2.10;96430.00;;;;5030760;28;20436;-77
2022/01/31 04:18:15;;;;;;;1.97;1.33;;;-1.60;92.50;-2.10;96426.00;;;;5025587;28;20460;-77
2022/01/31 04:21:06;;;;;;;2.43;1.37;;;-1.60;92.70;-2.10;96428.00;;;;5022093;28;20447;-78
2022/01/31 04:23:54;;;;;;;3.57;1.50;;;-1.60;92.90;-2.10;96427.00;;;;5027814;28;20440;-77
2022/01/31 04:26:54;;;;;;;10.33;1.97;;;-1.50;93.10;-2.30;96421.00;;;;5029405;28;20941;-77
2022/01/31 04:29:44;;;;;;;1.03;0.77;;;-1.50;93.10;-2.50;96416.00;;;;5030472;28;20496;-77
2022/01/31 04:32:33;;;;;;;2.17;0.93;;;-1.60;93.60;-2.10;96414.00;;;;5026297;28;20468;-77
2022/01/31 04:35:22;;;;;;;1.17;1.07;;;-1.60;93.60;-2.00;96382.00;;;;5029587;28;20974;-78
2022/01/31 04:38:12;;;;;;;4.80;1.40;;;-1.50;93.60;-2.30;96380.00;;;;5029329;28;20505;-77
2022/01/31 04:41:01;;;;;;;3.33;1.20;;;-1.50;94.10;-2.80;96380.00;;;;5022889;28;20467;-77
2022/01/31 04:43:53;;;;;;;1.43;1.30;;;-1.60;94.20;-2.70;96375.00;;;;5032447;28;20966;-77
2022/01/31 04:46:43;;;;;;;1.07;0.93;;;-1.70;95.10;-2.50;96369.00;;;;5029211;28;20429;-76
2022/01/31 04:49:33;;;;;;;2.40;1.07;;;-1.70;95.20;-2.90;96364.00;;;;5029687;28;20425;-76
2022/01/31 04:52:22;;;;;;;6.73;1.30;;;-1.80;95.60;-2.50;96364.00;;;;5032055;28;20454;-77
2022/01/31 04:55:13;;;;;;;1.30;1.20;;;-1.80;95.70;-2.30;96365.00;;;;5031896;28;20432;-77
2022/01/31 04:58:01;;;;;;;1.13;1.13;;;-1.80;95.80;-2.30;96353.00;;;;5031504;28;20479;-77
2022/01/31 05:00:51;;;;;;;0.70;0.70;;;-1.70;96.00;-2.30;96371.00;;;;5032074;28;20467;-76
2022/01/31 05:03:40;;;;;;;3.77;1.47;;;-1.70;95.90;-2.30;96364.00;;;;5024768;28;20431;-76
2022/01/31 05:06:33;;;;;;;1.20;1.10;;;-1.60;95.90;-2.40;96379.00;;;;5034906;28;20432;-77
2022/01/31 05:09:22;;;;;;;1.43;1.10;;;-1.60;95.90;-2.30;96369.00;;;;5034201;28;20424;-77
2022/01/31 05:12:13;;;;;;;1.00;0.90;;;-1.60;96.20;-2.20;96373.00;;;;5032319;28;20452;-77
2022/01/31 05:15:02;;;;;;;3.10;1.03;;;-1.60;96.20;-2.00;96385.00;;;;5023766;28;20428;-77
2022/01/31 05:17:51;;;;;;;1.70;1.20;;;-1.50;96.10;-1.90;96369.00;;;;5037614;28;20479;-77
2022/01/31 05:20:40;;;;;;;6.90;1.60;;;-1.50;95.80;-1.80;96369.00;;;;5039326;28;20424;-77
2022/01/31 05:23:29;;;;;;;5.40;1.73;;;-1.40;95.40;-1.80;96372.00;;;;5031777;28;20416;-77
2022/01/31 05:26:19;;;;;;;4.07;1.40;;;-1.30;95.50;-1.90;96349.00;;;;5041259;28;20413;-77
2022/01/31 05:29:09;;;;;;;3.30;1.30;;;-1.30;95.50;-2.10;96355.00;;;;5039040;28;20443;-77
2022/01/31 05:31:58;;;;;;;2.57;1.13;;;0.00;96.10;-2.30;96350.00;;;;5032139;28;20997;-76
2022/01/31 05:34:47;;;;;;;1.47;1.33;;;-1.40;95.80;-2.30;96329.00;;;;5035221;28;20416;-77
2022/01/31 05:37:36;;;;;;;2.07;1.47;;;-1.40;96.00;-2.10;96314.00;;;;5027581;28;20427;-77
2022/01/31 05:40:25;;;;;;;1.77;1.20;;;-1.50;96.10;-2.30;96296.00;;;;5031039;28;20441;-77
2022/01/31 05:43:16;;;;;;;1.60;1.07;;;-1.50;96.30;-2.70;96295.00;;;;5031178;28;20421;-77
2022/01/31 05:46:07;;;;;;;1.43;1.00;;;-1.60;96.90;-3.00;96291.00;;;;5022506;28;20437;-77
2022/01/31 05:48:55;;;;;;;2.77;1.23;;;-1.70;97.60;-2.90;96303.00;;;;5033820;28;20421;-76
2022/01/31 05:51:54;;;;;;;1.93;1.03;;;-1.90;98.20;-2.80;96307.00;;;;5040208;28;20463;-77
2022/01/31 05:54:44;;;;;;;4.93;1.43;;;-1.90;98.60;-2.90;96302.00;;;;5038945;28;20943;-77
2022/01/31 05:57:33;;;;;;;1.13;1.10;;;-1.90;99.00;-2.50;96305.00;;;;5040519;28;20427;-77
2022/01/31 06:00:22;;;;;;;3.53;1.57;;;-1.90;99.10;-2.20;96301.00;;;;5046696;28;20432;-77
2022/01/31 06:03:13;;;;;;;1.30;1.20;;;-1.80;99.10;-2.10;96302.00;;;;5042719;28;20440;-77
2022/01/31 06:06:03;;;;;;;6.50;1.60;;;-1.80;99.30;-2.00;96284.00;;;;5027294;28;20981;-77
2022/01/31 06:08:52;;;;;;;1.33;1.13;;;-1.70;99.30;-1.90;96280.00;;;;5036397;28;20444;-78
2022/01/31 06:11:41;;;;;;;31.23;6.53;;;-1.60;99.10;-2.00;96269.00;;;;5028393;28;20444;-77
2022/01/31 06:14:31;;;;;;;17.57;3.50;;;-1.50;99.40;-1.90;96266.00;;;;5039181;28;20420;-78
2022/01/31 06:17:20;;;;;;;7.87;2.00;;;-1.50;99.80;-1.90;96247.00;;;;5040484;28;20420;-78
2022/01/31 06:20:11;;;;;;;6.90;2.10;;;-1.50;99.80;-2.10;96234.00;;;;5039329;28;20424;-78
2022/01/31 06:22:59;;;;;;;4.67;1.47;;;-1.50;99.60;-2.00;96210.00;;;;5038875;28;20431;-78
2022/01/31 06:25:49;;;;;;;1.57;1.47;;;-1.40;99.20;-1.80;96189.00;;;;5038839;28;20431;-78
2022/01/31 06:28:38;;;;;;;2.90;1.50;;;-1.40;98.90;-1.90;96185.00;;;;5039198;28;20459;-79
2022/01/31 06:31:27;;;;;;;1.80;1.47;;;-1.40;98.50;-1.80;96189.00;;;;5030835;28;20471;-77
2022/01/31 06:34:18;;;;;;;1.27;1.17;;;-1.30;98.40;-1.90;96199.00;;;;5031167;28;20528;-77
2022/01/31 06:37:09;;;;;;;1.90;1.57;;;-1.30;98.70;-2.50;96196.00;;;;5033426;28;20440;-76
2022/01/31 06:39:58;;;;;;;4.80;2.43;;;-1.40;99.20;-2.30;96180.00;;;;5032793;28;21429;-78
2022/01/31 06:42:47;;;;;;;11.20;2.47;;;-1.40;99.60;-2.00;96183.00;;;;5031321;28;20470;-77
2022/01/31 06:45:36;;;;;;;1.60;1.07;;;-1.40;99.30;-1.70;96174.00;;;;5029225;28;20424;-78
2022/01/31 06:48:26;;;;;;;5.77;2.00;;;-1.40;99.10;-1.50;96168.00;;;;5035320;28;20509;-77
2022/01/31 06:51:15;;;;;;;3.10;1.80;;;-1.30;99.40;-1.60;96157.00;;;;5036461;28;20530;-77
2022/01/31 06:54:07;;;;;;;4.97;2.90;;;-1.20;99.40;-1.80;96142.00;;;;5037202;28;20499;-77
2022/01/31 06:56:57;;;;;;;7.40;3.30;;;-1.10;99.40;-1.70;96123.00;;;;5037598;28;20450;-76
2022/01/31 06:59:46;;;;;;;4.03;2.40;;;-1.20;99.30;-1.70;96125.00;;;;5037121;28;20479;-78
2022/01/31 07:02:35;;;;;;;6.20;2.80;;;-1.60;99.10;-2.00;96118.00;;;;5037071;28;20445;-77
2022/01/31 07:05:24;;;;;;;9.20;3.30;;;-1.20;99.20;-2.10;96110.00;;;;5036983;28;20720;-77
2022/01/31 07:08:14;;;;;;;2.67;2.47;;;-1.20;99.40;-2.00;96098.00;;;;5036468;28;20429;-78
2022/01/31 07:11:04;;;;;;;7.40;3.30;;;-1.10;99.40;-1.70;96087.00;;;;5035310;28;20454;-78
2022/01/31 07:14:01;;;;;;;7.23;3.50;;;-1.30;99.30;-1.60;96085.00;;;;5036470;28;20432;-77
2022/01/31 07:16:50;;;;;;;5.80;2.70;;;-1.20;99.40;-1.60;96089.00;;;;5025046;28;20436;-78
2022/01/31 07:19:41;;;;;;;6.47;3.47;;;-1.20;99.80;-1.50;96103.00;;;;5032881;28;20472;-78
2022/01/31 07:22:35;;;;;;;10.80;4.53;;;-1.20;99.90;-1.60;96093.00;;;;5032792;28;20475;-76
2022/01/31 07:25:34;;;;;;;10.40;5.00;;;-1.10;99.90;-1.50;96115.00;;;;5033862;28;20428;-77
2022/01/31 07:28:25;;;;;;;11.10;4.57;;;-1.10;99.90;-1.30;96100.00;;;;5034794;28;20436;-77
2022/01/31 07:31:14;;;;;;;18.70;7.27;;;-1.00;99.90;-1.40;96083.00;;;;5035995;28;20447;-77
2022/01/31 07:34:03;;;;;;;10.90;5.17;;;-1.00;99.90;-1.30;96074.00;;;;5035879;28;20443;-76
2022/01/31 07:36:53;;;;;;;10.20;4.60;;;-0.90;99.90;-1.00;96066.00;;;;5035298;28;20440;-75
2022/01/31 07:39:43;;;;;;;8.13;5.33;;;-0.80;99.90;-1.00;96057.00;;;;5034677;28;20464;-76
2022/01/31 07:42:31;;;;;;;12.03;6.37;;;-0.80;99.90;-0.90;96072.00;;;;5032434;28;20971;-74
2022/01/31 07:45:22;;;;;;;8.53;4.90;;;-0.70;99.90;-0.90;96066.00;;;;5027362;28;20741;-78
2022/01/31 07:48:11;;;;;;;14.17;5.13;;;-0.60;99.90;-1.00;96053.00;;;;5042209;28;20435;-75
2022/01/31 07:51:00;;;;;;;8.27;4.30;;;-0.50;99.90;-1.10;96046.00;;;;5037375;28;20455;-77
2022/01/31 07:53:49;;;;;;;1.87;1.67;;;-0.50;99.90;-1.00;96057.00;;;;5040857;28;21008;-77
2022/01/31 07:56:38;;;;;;;3.60;2.90;;;-0.50;99.40;-0.90;96045.00;;;;5036681;28;20927;-77
2022/01/31 07:59:27;;;;;;;4.33;3.93;;;-0.40;98.90;-0.70;96040.00;;;;5016452;28;20620;-77
2022/01/31 08:02:17;;;;;;;4.67;3.53;;;-0.40;99.20;-0.80;96039.00;;;;5021474;28;20463;-75
2022/01/31 08:05:47;;;;;;;7.13;3.43;;;-0.40;99.40;-0.90;96026.00;;;;5021950;28;20432;-76
2022/01/31 08:09:08;;;;;;;11.20;2.50;;;-0.40;99.90;-0.80;96023.00;;;;5022810;28;20799;-76
2022/01/31 08:11:57;;;;;;;2.80;2.13;;;-0.40;99.90;-0.50;96017.00;;;;5021390;28;20448;-76
2022/01/31 08:14:48;;;;;;;6.30;2.00;;;-0.30;99.20;-0.30;96007.00;;;;5018430;28;20667;-75
2022/01/31 08:17:38;;;;;;;14.77;7.17;;;-0.20;98.70;-0.20;95999.00;;;;5019927;28;20441;-75
2022/01/31 08:20:27;;;;;;;3.33;2.10;;;-0.10;98.60;-0.30;95981.00;;;;5028199;28;20475;-77
2022/01/31 08:23:16;;;;;;;3.17;2.70;;;0.00;99.20;-0.30;95989.00;;;;5035088;28;20451;-77
2022/01/31 08:26:08;;;;;;;4.27;2.27;;;0.10;99.40;0.00;95989.00;;;;5035762;28;20436;-77
2022/01/31 08:28:59;;;;;;;5.70;3.70;;;0.10;99.40;0.20;95983.00;;;;5036124;28;20599;-77
2022/01/31 08:31:53;;;;;;;3.07;2.87;;;0.30;99.80;0.20;95994.00;;;;5038045;28;20455;-76
2022/01/31 08:37:50;;;;;;;4.73;2.40;;;0.50;99.00;-0.40;95962.00;;;;5032089;28;20446;-77
2022/01/31 08:40:39;;;;;;;2.90;2.00;;;0.40;97.80;-0.20;95972.00;;;;5035611;28;20471;-77
2022/01/31 08:43:28;;;;;;;4.20;1.43;;;0.40;97.20;-0.10;95976.00;;;;5031634;28;20429;-77
2022/01/31 08:46:18;;;;;;;3.93;2.53;;;0.40;96.70;0.00;95973.00;;;;5037633;28;20431;-77
2022/01/31 08:49:07;;;;;;;5.03;2.30;;;0.10;97.10;0.10;95973.00;;;;5032147;28;20439;-76
2022/01/31 08:51:58;;;;;;;9.43;2.57;;;0.50;97.60;0.10;95956.00;;;;5037697;28;20486;-78
2022/01/31 08:54:47;;;;;;;14.67;2.73;;;0.60;98.00;0.30;95953.00;;;;5036327;28;20574;-77
2022/01/31 08:57:36;;;;;;;3.57;2.20;;;0.50;98.10;0.10;95948.00;;;;5031262;28;20444;-76
2022/01/31 09:00:33;;;;;;;20.53;4.97;;;0.50;98.30;0.40;95966.00;;;;5026405;28;20472;-77
2022/01/31 09:03:39;;;;;;;9.33;4.63;;;0.60;98.40;0.00;95972.00;;;;5031770;28;20428;-76
2022/01/31 09:06:32;;;;;;;13.33;7.90;;;0.60;98.60;-0.20;95973.00;;;;5032636;28;20442;-77
2022/01/31 09:09:23;;;;;;;10.73;6.27;;;0.60;98.90;-0.40;95959.00;;;;5032327;28;20436;-77
2022/01/31 09:12:16;;;;;;;12.50;5.40;;;0.50;99.20;-0.20;95955.00;;;;5029675;28;20470;-76
2022/01/31 09:15:07;;;;;;;15.33;7.43;;;0.50;99.00;0.00;95960.00;;;;5029024;28;20470;-76
2022/01/31 09:17:56;;;;;;;11.43;5.80;;;0.40;99.40;0.30;95979.00;;;;5029147;28;20436;-77
2022/01/31 09:20:45;;;;;;;13.47;7.03;;;0.50;99.60;0.40;95966.00;;;;5027081;28;20495;-77
2022/01/31 09:23:33;;;;;;;17.03;6.43;;;0.60;99.50;0.20;95961.00;;;;5030149;28;20454;-76
2022/01/31 09:26:27;;;;;;;15.97;7.47;;;0.60;99.50;0.20;95927.00;;;;5029349;28;21158;-77
2022/01/31 09:29:17;;;;;;;13.73;6.33;;;1.70;99.80;0.30;95926.00;;;;5032128;28;21744;-76
2022/01/31 09:32:07;;;;;;;7.63;4.20;;;0.70;99.40;0.40;95924.00;;;;5029993;28;20467;-76
2022/01/31 09:34:56;;;;;;;7.73;4.60;;;0.70;99.30;0.50;95912.00;;;;5030789;28;20459;-76
2022/01/31 09:37:45;;;;;;;13.37;3.83;;;0.80;99.10;0.60;95901.00;;;;5034435;28;20428;-76
2022/01/31 09:40:34;;;;;;;7.00;3.53;;;0.80;99.20;0.70;95886.00;;;;5035725;28;20861;-76
2022/01/31 09:49:37;;;;;;;10.87;3.20;;;0.90;99.10;0.30;95875.00;;;;5036959;28;21057;-77
2022/01/31 09:52:25;;;;;;;7.10;3.97;;;0.90;99.10;0.60;95864.00;;;;5039310;28;20444;-78
2022/01/31 09:55:14;;;;;;;8.93;3.80;;;1.00;99.10;0.90;95869.00;;;;5037591;28;20435;-77
2022/01/31 09:58:07;;;;;;;6.90;4.10;;;1.00;99.30;1.10;95877.00;;;;5026657;28;20432;-76
2022/01/31 10:01:10;;;;;;;7.60;3.23;;;1.10;99.20;0.80;95872.00;;;;5022789;28;20491;-77
2022/01/31 10:04:01;;;;;;;7.30;3.23;;;1.20;98.90;0.70;95865.00;;;;5023779;28;20554;-79
2022/01/31 10:06:54;;;;;;;7.67;3.43;;;1.20;98.40;1.10;95853.00;;;;5030102;28;20436;-77
2022/01/31 10:09:46;;;;;;;13.57;4.60;;;1.30;98.30;1.30;95845.00;;;;5042312;28;20519;-76
2022/01/31 10:19:06;;;;;;;6.93;2.70;;;1.50;97.70;1.20;95824.00;;;;5027391;28;20436;-77
2022/01/31 10:22:02;;;;;;;10.37;3.17;;;1.50;97.70;1.70;95834.00;;;;5024715;28;20728;-76
2022/01/31 10:24:54;;;;;;;5.90;3.37;;;1.70;97.80;2.00;95846.00;;;;5025940;28;20441;-78
2022/01/31 10:27:48;;;;;;;10.20;3.30;;;1.80;97.70;2.20;95851.00;;;;5026927;28;23250;-79
2022/01/31 10:30:37;;;;;;;10.97;5.70;;;1.90;97.70;2.10;95852.00;;;;5026796;28;20499;-79
2022/01/31 10:33:29;;;;;;;10.43;5.13;;;2.20;97.50;1.70;95840.00;;;;5023249;28;20821;-78
2022/01/31 10:36:22;;;;;;;11.93;5.40;;;2.20;96.20;1.60;95827.00;;;;5024792;28;20429;-78
2022/01/31 10:39:14;;;;;;;14.97;5.37;;;2.10;96.10;1.70;95830.00;;;;5024251;28;20452;-79
2022/01/31 10:45:54;;;;;;;9.87;4.83;;;2.20;96.20;2.40;95812.00;;;;5021024;28;20443;-75
2022/01/31 10:52:01;;;;;;;8.20;4.27;;;2.40;95.50;2.20;95804.00;;;;5039811;28;20462;-78
2022/01/31 10:54:52;;;;;;;8.40;5.23;;;2.50;94.90;2.20;95801.00;;;;5035604;28;20443;-77
2022/01/31 10:57:43;;;;;;;4.90;3.00;;;2.50;94.80;2.50;95789.00;;;;5039702;28;20577;-78
2022/01/31 11:00:37;;;;;;;6.87;3.70;;;2.60;95.00;2.70;95791.00;;;;5035581;28;20472;-76
2022/01/31 11:03:32;;;;;;;6.90;3.63;;;2.70;94.90;2.80;95749.00;;;;5039003;28;20458;-78
2022/01/31 11:06:23;;;;;;;6.47;4.17;;;2.80;94.50;3.00;95749.00;;;;5042246;28;20420;-77
2022/01/31 11:09:16;;;;;;;11.27;3.93;;;3.00;94.30;3.20;95747.00;;;;5042324;28;20436;-78
2022/01/31 11:12:08;;;;;;;8.23;3.97;;;3.10;93.90;3.50;95741.00;;;;5035333;28;20460;-76
2022/01/31 11:14:56;;;;;;;7.60;3.50;;;3.30;93.90;3.90;95753.00;;;;5037949;28;20432;-79
2022/01/31 11:17:49;;;;;;;11.30;3.67;;;3.50;94.20;3.60;95738.00;;;;5037096;28;20437;-78
2022/01/31 11:20:43;;;;;;;8.40;3.97;;;3.60;93.20;3.90;95764.00;;;;5036517;28;20468;-78
2022/01/31 11:23:39;;;;;;;8.30;4.40;;;3.70;92.80;4.30;95765.00;;;;5036212;28;20479;-78
2022/01/31 11:26:37;;;;;;;7.07;2.90;;;3.90;92.80;4.20;95754.00;;;;5038932;28;20441;-77
2022/01/31 11:29:29;;;;;;;5.67;2.50;;;4.10;92.30;4.40;95742.00;;;;5039051;28;21211;-77
2022/01/31 11:32:19;;;;;;;7.77;2.93;;;2.90;91.10;4.60;95728.00;;;;5035741;28;22492;-78
2022/01/31 11:35:22;;;;;;;8.63;2.93;;;4.40;91.10;4.50;95725.00;;;;5035300;28;20209;-76
2022/01/31 11:38:15;;;;;;;12.97;2.90;;;4.60;90.60;4.60;95731.00;;;;5036450;28;20217;-75
2022/01/31 11:41:05;;;;;;;8.50;3.80;;;2.80;88.80;4.90;95760.00;;;;5032432;28;20449;-76
2022/01/31 11:44:03;;;;;;;23.80;12.67;;;4.80;90.10;5.30;95735.00;;;;5031585;28;20205;-77
2022/01/31 11:46:52;;;;;;;10.93;4.43;;;4.90;89.40;6.00;95697.00;;;;5028325;28;20209;-76
2022/01/31 11:49:47;;;;;;;8.57;4.43;;;5.30;89.40;6.30;95709.00;;;;5025949;28;20209;-77
2022/01/31 11:52:47;;;;;;;7.70;3.40;;;5.80;86.70;6.00;95719.00;;;;5019955;28;20229;-76
2022/01/31 11:55:38;;;;;;;9.03;2.73;;;6.10;82.60;6.10;95711.00;;;;5024362;28;20209;-77
2022/01/31 11:58:32;;;;;;;11.10;3.10;;;6.30;80.90;6.10;95705.00;;;;5025415;28;20200;-77
2022/01/31 12:01:24;;;;;;;10.67;2.77;;;6.40;79.00;6.10;95717.00;;;;5022069;28;20233;-78
2022/01/31 12:04:13;;;;;;;6.77;2.90;;;6.30;78.60;6.50;95693.00;;;;5019069;28;20593;-78
2022/01/31 12:07:31;;;;;;;7.83;2.73;;;6.30;79.60;6.70;95685.00;;;;5020289;28;20209;-77
2022/01/31 12:10:26;;;;;;;5.73;2.13;;;6.30;79.90;6.70;95677.00;;;;5016276;28;20201;-76
2022/01/31 12:13:38;;;;;;;6.53;2.37;;;6.40;79.60;6.50;95675.00;;;;5018199;28;20213;-77
2022/01/31 12:16:45;;;;;;;5.97;3.03;;;6.50;78.30;6.50;95671.00;;;;5029855;28;20213;-79
2022/01/31 12:19:48;;;;;;;5.17;2.77;;;6.50;77.70;6.70;95652.00;;;;5031449;28;20205;-77
2022/01/31 12:22:47;;;;;;;6.60;2.53;;;6.50;76.40;7.10;95643.00;;;;5032468;28;20232;-80
2022/01/31 12:25:41;;;;;;;7.73;2.97;;;6.70;76.20;7.70;95648.00;;;;5028650;28;20201;-80
2022/01/31 12:28:43;;;;;;;7.90;4.50;;;7.00;76.20;8.70;95639.00;;;;5028970;28;20207;-81
2022/01/31 12:31:38;;;;;;;6.50;3.60;;;7.50;76.30;9.20;95654.00;;;;5027728;28;20224;-78
2022/01/31 12:34:41;;;;;;;9.57;4.37;;;8.30;74.90;9.70;95645.00;;;;5036899;28;20197;-79
2022/01/31 12:37:34;;;;;;;9.17;3.93;;;8.90;72.50;10.30;95625.00;;;;5025528;28;20219;-79
2022/01/31 12:40:57;;;;;;;9.87;5.40;;;9.50;69.70;10.80;95625.00;;;;5034109;28;20259;-80
2022/01/31 12:43:51;;;;;;;12.97;3.70;;;10.40;65.90;10.60;95615.00;;;;4955568;28;20208;-78
2022/01/31 12:46:50;;;;;;;12.67;3.83;;;11.00;61.30;11.90;95614.00;;;;5028788;28;20220;-79
2022/01/31 12:49:40;;;;;;;7.77;3.57;;;11.40;61.20;12.40;95594.00;;;;5044524;28;20215;-79
2022/01/31 12:52:35;;;;;;;7.57;3.73;;;12.10;58.90;12.70;95622.00;;;;5042090;28;20688;-79
2022/01/31 12:55:27;;;;;;;10.27;3.37;;;12.40;57.60;12.70;95624.00;;;;5043091;28;20206;-78
2022/01/31 12:58:17;;;;;;;5.43;3.13;;;12.70;56.60;12.00;95634.00;;;;5044834;28;20236;-79
2022/01/31 13:01:11;;;;;;;6.77;3.03;;;12.60;55.60;11.30;95611.00;;;;5046775;28;20248;-80
2022/01/31 13:04:04;;;;;;;5.63;2.50;;;12.20;54.60;11.10;95613.00;;;;5050960;28;20205;-78
2022/01/31 13:06:57;;;;;;;5.03;3.00;;;11.80;54.90;10.30;95618.00;;;;5036628;28;20197;-80
2022/01/31 13:09:48;;;;;;;8.53;4.10;;;11.30;55.00;10.10;95610.00;;;;5038473;28;20216;-78